sensor_id;sensor_type;location;lat;lon;timestamp;P1;durP1;ratioP1;P2;durP2;ratioP2
50086;SDS011;35967;50.718;7.050;2023-12-20T00:08:39;3.10;;;1.23;;
50086;SDS011;35967;50.718;7.050;2023-12-20T00:18:44;2.83;;;1.20;;
50086;SDS011;35967;50.718;7.050;2023-12-20T00:28:48;1.93;;;1.20;;
50086;SDS011;35967;50.718;7.050;2023-12-20T00:38:53;2.33;;;1.20;;
50086;SDS011;35967;50.718;7.050;2023-12-20T00:48:56;2.83;;;1.10;;
50086;SDS011;35967;50.718;7.050;2023-12-20T00:59:01;2.57;;;0.93;;
50086;SDS011;35967;50.718;7.050;2023-12-20T01:09:04;3.27;;;1.20;;
50086;SDS011;35967;50.718;7.050;2023-12-20T01:19:09;4.10;;;2.10;;
50086;SDS011;35967;50.718;7.050;2023-12-20T01:29:12;6.53;;;3.67;;
50086;SDS011;35967;50.718;7.050;2023-12-20T01:39:18;10.33;;;6.63;;
50086;SDS011;35967;50.718;7.050;2023-12-20T01:49:30;13.97;;;8.10;;
50086;SDS011;35967;50.718;7.050;2023-12-20T01:59:35;15.03;;;8.50;;
50086;SDS011;35967;50.718;7.050;2023-12-20T02:09:38;20.00;;;10.43;;
50086;SDS011;35967;50.718;7.050;2023-12-20T02:19:44;15.20;;;8.33;;
50086;SDS011;35967;50.718;7.050;2023-12-20T02:29:49;14.27;;;3.80;;
50086;SDS011;35967;50.718;7.050;2023-12-20T02:39:53;9.60;;;3.03;;
50086;SDS011;35967;50.718;7.050;2023-12-20T02:49:58;14.23;;;2.00;;
50086;SDS011;35967;50.718;7.050;2023-12-20T03:00:01;13.47;;;2.23;;
50086;SDS011;35967;50.718;7.050;2023-12-20T03:10:06;18.07;;;1.77;;
50086;SDS011;35967;50.718;7.050;2023-12-20T03:20:21;13.57;;;1.67;;
50086;SDS011;35967;50.718;7.050;2023-12-20T03:30:25;13.30;;;2.40;;
50086;SDS011;35967;50.718;7.050;2023-12-20T03:40:28;21.40;;;3.07;;
50086;SDS011;35967;50.718;7.050;2023-12-20T03:50:33;18.00;;;2.03;;
50086;SDS011;35967;50.718;7.050;2023-12-20T04:00:36;20.83;;;1.80;;
50086;SDS011;35967;50.718;7.050;2023-12-20T04:10:40;9.00;;;1.20;;
50086;SDS011;35967;50.718;7.050;2023-12-20T04:20:44;12.97;;;2.17;;
50086;SDS011;35967;50.718;7.050;2023-12-20T04:30:48;18.33;;;2.20;;
50086;SDS011;35967;50.718;7.050;2023-12-20T04:40:52;15.83;;;2.07;;
50086;SDS011;35967;50.718;7.050;2023-12-20T04:50:56;15.23;;;2.40;;
50086;SDS011;35967;50.718;7.050;2023-12-20T05:01:00;15.93;;;1.87;;
50086;SDS011;35967;50.718;7.050;2023-12-20T05:11:05;16.17;;;1.90;;
50086;SDS011;35967;50.718;7.050;2023-12-20T05:21:09;11.53;;;2.23;;
50086;SDS011;35967;50.718;7.050;2023-12-20T05:31:13;15.17;;;3.40;;
50086;SDS011;35967;50.718;7.050;2023-12-20T05:41:17;15.30;;;2.93;;
50086;SDS011;35967;50.718;7.050;2023-12-20T05:51:21;20.83;;;2.90;;
50086;SDS011;35967;50.718;7.050;2023-12-20T06:01:24;17.83;;;2.33;;
50086;SDS011;35967;50.718;7.050;2023-12-20T06:11:29;11.83;;;1.90;;
50086;SDS011;35967;50.718;7.050;2023-12-20T06:21:32;12.47;;;2.27;;
50086;SDS011;35967;50.718;7.050;2023-12-20T06:31:37;20.33;;;2.97;;
50086;SDS011;35967;50.718;7.050;2023-12-20T06:41:40;24.77;;;2.80;;
50086;SDS011;35967;50.718;7.050;2023-12-20T06:51:45;26.27;;;3.27;;
50086;SDS011;35967;50.718;7.050;2023-12-20T07:01:49;17.70;;;2.43;;
50086;SDS011;35967;50.718;7.050;2023-12-20T07:11:54;16.47;;;2.77;;
50086;SDS011;35967;50.718;7.050;2023-12-20T07:21:58;21.20;;;2.97;;
50086;SDS011;35967;50.718;7.050;2023-12-20T07:32:02;15.30;;;2.47;;
50086;SDS011;35967;50.718;7.050;2023-12-20T07:42:07;31.73;;;2.90;;
50086;SDS011;35967;50.718;7.050;2023-12-20T07:52:12;17.87;;;2.70;;
50086;SDS011;35967;50.718;7.050;2023-12-20T08:02:16;18.03;;;2.53;;
50086;SDS011;35967;50.718;7.050;2023-12-20T08:12:20;13.73;;;2.20;;
50086;SDS011;35967;50.718;7.050;2023-12-20T08:22:23;24.30;;;2.73;;
50086;SDS011;35967;50.718;7.050;2023-12-20T08:32:28;16.10;;;2.30;;
50086;SDS011;35967;50.718;7.050;2023-12-20T08:42:31;24.07;;;2.50;;
50086;SDS011;35967;50.718;7.050;2023-12-20T08:52:36;18.20;;;2.70;;
50086;SDS011;35967;50.718;7.050;2023-12-20T09:02:40;16.93;;;2.70;;
50086;SDS011;35967;50.718;7.050;2023-12-20T09:12:44;19.30;;;2.70;;
50086;SDS011;35967;50.718;7.050;2023-12-20T09:22:49;22.27;;;2.30;;
50086;SDS011;35967;50.718;7.050;2023-12-20T09:32:53;16.23;;;1.97;;
50086;SDS011;35967;50.718;7.050;2023-12-20T09:42:57;20.30;;;2.17;;
50086;SDS011;35967;50.718;7.050;2023-12-20T09:53:03;17.87;;;1.80;;
50086;SDS011;35967;50.718;7.050;2023-12-20T10:03:10;15.87;;;2.03;;
50086;SDS011;35967;50.718;7.050;2023-12-20T10:13:20;14.63;;;1.80;;
50086;SDS011;35967;50.718;7.050;2023-12-20T13:45:59;14.00;;;3.13;;
50086;SDS011;35967;50.718;7.050;2023-12-20T13:56:04;17.80;;;3.13;;
50086;SDS011;35967;50.718;7.050;2023-12-20T14:06:09;18.30;;;2.50;;
50086;SDS011;35967;50.718;7.050;2023-12-20T14:16:13;17.63;;;2.00;;
50086;SDS011;35967;50.718;7.050;2023-12-20T14:26:18;4.63;;;0.83;;
50086;SDS011;35967;50.718;7.050;2023-12-20T14:36:21;3.63;;;0.70;;
50086;SDS011;35967;50.718;7.050;2023-12-20T14:46:26;4.30;;;0.60;;
50086;SDS011;35967;50.718;7.050;2023-12-20T14:56:31;2.20;;;0.70;;
50086;SDS011;35967;50.718;7.050;2023-12-20T15:06:36;3.43;;;0.70;;
50086;SDS011;35967;50.718;7.050;2023-12-20T15:16:39;5.20;;;1.17;;
50086;SDS011;35967;50.718;7.050;2023-12-20T15:26:45;5.87;;;1.23;;
50086;SDS011;35967;50.718;7.050;2023-12-20T15:36:49;10.40;;;1.43;;
50086;SDS011;35967;50.718;7.050;2023-12-20T15:46:53;16.17;;;1.70;;
50086;SDS011;35967;50.718;7.050;2023-12-20T15:56:57;9.40;;;1.80;;
50086;SDS011;35967;50.718;7.050;2023-12-20T16:07:01;11.23;;;1.60;;
50086;SDS011;35967;50.718;7.050;2023-12-20T16:17:05;12.47;;;1.90;;
50086;SDS011;35967;50.718;7.050;2023-12-20T16:27:10;10.83;;;2.37;;
50086;SDS011;35967;50.718;7.050;2023-12-20T16:37:14;10.83;;;1.63;;
50086;SDS011;35967;50.718;7.050;2023-12-20T16:47:19;9.83;;;2.33;;
50086;SDS011;35967;50.718;7.050;2023-12-20T16:57:23;12.37;;;1.87;;
50086;SDS011;35967;50.718;7.050;2023-12-20T17:07:27;6.37;;;1.60;;
50086;SDS011;35967;50.718;7.050;2023-12-20T17:17:31;10.90;;;1.83;;
50086;SDS011;35967;50.718;7.050;2023-12-20T17:27:36;10.57;;;1.90;;
50086;SDS011;35967;50.718;7.050;2023-12-20T17:37:39;8.40;;;1.80;;
50086;SDS011;35967;50.718;7.050;2023-12-20T17:47:44;18.37;;;2.60;;
50086;SDS011;35967;50.718;7.050;2023-12-20T17:57:48;11.80;;;2.30;;
50086;SDS011;35967;50.718;7.050;2023-12-20T18:18:58;9.63;;;1.77;;
50086;SDS011;35967;50.718;7.050;2023-12-20T18:29:01;13.33;;;2.53;;
50086;SDS011;35967;50.718;7.050;2023-12-20T18:39:08;10.03;;;1.80;;
50086;SDS011;35967;50.718;7.050;2023-12-20T18:49:11;9.87;;;2.63;;
50086;SDS011;35967;50.718;7.050;2023-12-20T18:59:16;9.50;;;1.50;;
50086;SDS011;35967;50.718;7.050;2023-12-20T19:09:21;9.83;;;1.60;;
50086;SDS011;35967;50.718;7.050;2023-12-20T19:19:26;5.57;;;1.03;;
50086;SDS011;35967;50.718;7.050;2023-12-20T19:29:30;12.17;;;1.57;;
50086;SDS011;35967;50.718;7.050;2023-12-20T19:39:34;9.73;;;1.07;;
50086;SDS011;35967;50.718;7.050;2023-12-20T19:49:39;5.20;;;0.80;;
50086;SDS011;35967;50.718;7.050;2023-12-20T19:59:44;4.97;;;0.73;;
50086;SDS011;35967;50.718;7.050;2023-12-20T20:09:48;7.83;;;1.40;;
50086;SDS011;35967;50.718;7.050;2023-12-20T20:19:53;10.33;;;1.10;;
50086;SDS011;35967;50.718;7.050;2023-12-20T20:29:56;6.80;;;1.33;;
50086;SDS011;35967;50.718;7.050;2023-12-20T20:40:01;5.33;;;0.70;;
50086;SDS011;35967;50.718;7.050;2023-12-20T20:50:05;10.27;;;0.80;;
50086;SDS011;35967;50.718;7.050;2023-12-20T21:00:11;6.87;;;1.00;;
50086;SDS011;35967;50.718;7.050;2023-12-20T21:10:15;6.27;;;0.70;;
50086;SDS011;35967;50.718;7.050;2023-12-20T21:20:20;6.83;;;0.80;;
50086;SDS011;35967;50.718;7.050;2023-12-20T21:30:24;4.77;;;0.70;;
50086;SDS011;35967;50.718;7.050;2023-12-20T21:40:28;3.97;;;0.60;;
50086;SDS011;35967;50.718;7.050;2023-12-20T21:50:32;6.73;;;0.70;;
50086;SDS011;35967;50.718;7.050;2023-12-20T22:00:39;4.77;;;0.50;;
50086;SDS011;35967;50.718;7.050;2023-12-20T22:10:42;1.90;;;0.40;;
50086;SDS011;35967;50.718;7.050;2023-12-20T22:20:46;2.93;;;0.50;;
50086;SDS011;35967;50.718;7.050;2023-12-20T22:30:49;3.60;;;0.50;;
50086;SDS011;35967;50.718;7.050;2023-12-20T22:40:54;1.70;;;0.30;;
50086;SDS011;35967;50.718;7.050;2023-12-20T22:50:57;3.00;;;0.30;;
50086;SDS011;35967;50.718;7.050;2023-12-20T23:01:01;1.03;;;0.40;;
50086;SDS011;35967;50.718;7.050;2023-12-20T23:11:05;2.10;;;0.30;;
50086;SDS011;35967;50.718;7.050;2023-12-20T23:21:09;0.83;;;0.20;;
50086;SDS011;35967;50.718;7.050;2023-12-20T23:31:21;1.93;;;0.67;;
50086;SDS011;35967;50.718;7.050;2023-12-20T23:41:25;0.40;;;0.20;;
50086;SDS011;35967;50.718;7.050;2023-12-20T23:51:30;0.50;;;0.20;;
